createdAt,value
2018-11-14T00:00:18.437Z,9.03
2018-11-14T00:01:18.412Z,9.06
2018-11-14T00:02:18.397Z,8.97
2018-11-14T00:03:18.409Z,8.98
2018-11-14T00:04:18.377Z,8.94
2018-11-14T00:05:18.362Z,8.98
2018-11-14T00:06:18.363Z,8.91
2018-11-14T00:07:18.341Z,8.93
2018-11-14T00:08:18.354Z,8.94
2018-11-14T00:09:18.320Z,8.97
2018-11-14T00:10:18.929Z,8.93
2018-11-14T00:11:18.333Z,8.96
2018-11-14T00:12:18.293Z,8.94
2018-11-14T00:13:18.297Z,9.01
2018-11-14T00:14:18.264Z,8.97
2018-11-14T00:15:18.254Z,8.96
2018-11-14T00:16:18.242Z,8.96
2018-11-14T00:17:18.233Z,8.97
2018-11-14T00:18:18.254Z,8.88
2018-11-14T00:19:18.269Z,8.96
2018-11-14T00:20:18.200Z,8.96
2018-11-14T00:21:18.190Z,8.93
2018-11-14T00:22:18.176Z,8.93
2018-11-14T00:23:18.188Z,8.96
2018-11-14T00:24:18.217Z,8.96
2018-11-14T00:25:18.141Z,8.86
2018-11-14T00:26:18.131Z,8.91
2018-11-14T00:27:18.118Z,8.94
2018-11-14T00:28:18.145Z,8.94
2018-11-14T00:29:18.102Z,8.94
2018-11-14T00:30:18.335Z,8.88
2018-11-14T00:31:18.075Z,8.91
2018-11-14T00:32:18.064Z,8.89
2018-11-14T00:33:18.081Z,8.86
2018-11-14T00:34:18.071Z,8.93
2018-11-14T00:35:18.033Z,8.86
2018-11-14T00:36:18.031Z,8.86
2018-11-14T00:37:18.011Z,8.78
2018-11-14T00:38:18.021Z,8.76
2018-11-14T00:39:17.985Z,8.76
2018-11-14T00:40:17.973Z,8.79
2018-11-14T00:41:17.967Z,8.82
2018-11-14T00:42:17.966Z,8.76
2018-11-14T00:43:17.966Z,8.79
2018-11-14T00:44:17.934Z,8.85
2018-11-14T00:45:17.919Z,8.82
2018-11-14T00:46:17.912Z,8.80
2018-11-14T00:47:17.900Z,8.75
2018-11-14T00:48:17.919Z,8.80
2018-11-14T00:49:17.891Z,8.83
2018-11-14T00:50:17.868Z,8.78
2018-11-14T00:51:17.855Z,8.71
2018-11-14T00:52:17.845Z,8.79
2018-11-14T00:53:17.857Z,8.70
2018-11-14T00:54:17.821Z,8.75
2018-11-14T00:55:17.840Z,8.73
2018-11-14T00:56:17.800Z,8.76
2018-11-14T00:57:17.789Z,8.75
2018-11-14T00:58:17.803Z,8.67
2018-11-14T00:59:17.766Z,8.73
2018-11-14T01:00:17.756Z,8.76
2018-11-14T01:01:17.772Z,8.64
2018-11-14T01:02:17.733Z,8.70
2018-11-14T01:03:17.747Z,8.64
2018-11-14T01:04:17.712Z,8.75
2018-11-14T01:05:17.702Z,8.67
2018-11-14T01:06:17.689Z,8.67
2018-11-14T01:07:17.705Z,8.75
2018-11-14T01:08:17.673Z,8.75
2018-11-14T01:09:17.692Z,8.75
2018-11-14T01:10:17.646Z,8.71
2018-11-14T01:11:17.634Z,8.63
2018-11-14T01:12:17.625Z,8.73
2018-11-14T01:13:17.694Z,8.68
2018-11-14T01:14:17.624Z,8.65
2018-11-14T01:15:17.589Z,8.64
2018-11-14T01:16:17.580Z,8.70
2018-11-14T01:17:17.572Z,8.70
2018-11-14T01:18:17.558Z,8.64
2018-11-14T01:19:17.578Z,8.64
2018-11-14T01:20:17.534Z,8.61
2018-11-14T01:21:17.523Z,8.65
2018-11-14T01:22:17.513Z,8.70
2018-11-14T01:23:17.500Z,8.64
2018-11-14T01:24:17.512Z,8.67
2018-11-14T01:25:17.480Z,8.61
2018-11-14T01:26:17.476Z,8.73
2018-11-14T01:27:17.456Z,8.70
2018-11-14T01:28:17.444Z,8.68
2018-11-14T01:29:17.455Z,8.68
2018-11-14T01:30:17.423Z,8.58
2018-11-14T01:31:17.410Z,8.67
2018-11-14T01:32:17.409Z,8.71
2018-11-14T01:33:17.388Z,8.60
2018-11-14T01:34:17.398Z,8.64
2018-11-14T01:35:17.364Z,8.63
2018-11-14T01:36:17.355Z,8.65
2018-11-14T01:37:17.342Z,8.55
2018-11-14T01:38:17.337Z,8.61
2018-11-14T01:39:17.345Z,8.58
2018-11-14T01:40:17.307Z,8.57
2018-11-14T01:41:17.296Z,8.65
2018-11-14T01:42:17.284Z,8.57
2018-11-14T01:43:17.274Z,8.55
2018-11-14T01:44:17.290Z,8.58
2018-11-14T01:45:17.261Z,8.58
2018-11-14T01:46:17.249Z,8.57
2018-11-14T01:47:17.230Z,8.61
2018-11-14T01:48:17.218Z,8.58
2018-11-14T01:49:17.233Z,8.52
2018-11-14T01:50:17.194Z,8.58
2018-11-14T01:51:17.184Z,8.57
2018-11-14T01:52:17.181Z,8.50
2018-11-14T01:53:17.161Z,8.54
2018-11-14T01:54:17.176Z,8.43
2018-11-14T01:55:17.136Z,8.47
2018-11-14T01:56:17.126Z,8.42
2018-11-14T01:57:17.120Z,8.43
2018-11-14T01:58:17.105Z,8.42
2018-11-14T01:59:17.116Z,8.46
2018-11-14T02:00:17.082Z,8.40
2018-11-14T02:01:17.068Z,8.32
2018-11-14T02:02:17.058Z,8.42
2018-11-14T02:03:17.047Z,8.39
2018-11-14T02:04:17.064Z,8.39
2018-11-14T02:05:17.023Z,8.42
2018-11-14T02:06:17.011Z,8.39
2018-11-14T02:07:17.002Z,8.40
2018-11-14T02:08:16.990Z,8.40
2018-11-14T02:09:17.003Z,8.37
2018-11-14T02:10:16.980Z,8.45
2018-11-14T02:11:16.955Z,8.29
2018-11-14T02:12:16.943Z,8.29
2018-11-14T02:13:16.934Z,8.32
2018-11-14T02:14:16.944Z,8.29
2018-11-14T02:15:16.910Z,8.29
2018-11-14T02:16:16.907Z,8.34
2018-11-14T02:17:16.887Z,8.31
2018-11-14T02:18:16.875Z,8.36
2018-11-14T02:19:16.889Z,8.32
2018-11-14T02:20:16.857Z,8.34
2018-11-14T02:21:16.843Z,8.39
2018-11-14T02:22:16.832Z,8.22
2018-11-14T02:23:16.829Z,8.28
2018-11-14T02:24:16.833Z,8.36
2018-11-14T02:25:16.804Z,8.27
2018-11-14T02:26:16.787Z,8.22
2018-11-14T02:27:16.773Z,8.31
2018-11-14T02:28:16.761Z,8.28
2018-11-14T02:29:16.783Z,8.28
2018-11-14T02:30:16.748Z,8.25
2018-11-14T02:31:16.738Z,8.24
2018-11-14T02:32:16.717Z,8.18
2018-11-14T02:33:16.707Z,8.24
2018-11-14T02:34:16.719Z,8.24
2018-11-14T02:35:16.683Z,8.18
2018-11-14T02:36:16.672Z,8.29
2018-11-14T02:37:16.714Z,8.28
2018-11-14T02:38:16.654Z,8.28
2018-11-14T02:39:16.660Z,8.22
2018-11-14T02:40:16.630Z,8.24
2018-11-14T02:41:16.614Z,8.34
2018-11-14T02:42:16.603Z,8.25
2018-11-14T02:43:16.603Z,8.28
2018-11-14T02:44:16.617Z,8.28
2018-11-14T02:45:16.582Z,8.25
2018-11-14T02:46:16.556Z,8.27
2018-11-14T02:47:16.547Z,8.25
2018-11-14T02:48:16.536Z,8.31
2018-11-14T02:49:16.545Z,8.24
2018-11-14T02:50:16.523Z,8.31
2018-11-14T02:51:16.503Z,8.25
2018-11-14T02:52:16.486Z,8.24
2018-11-14T02:53:16.477Z,8.27
2018-11-14T02:54:16.488Z,8.24
2018-11-14T02:55:16.453Z,8.18
2018-11-14T02:56:16.449Z,8.22
2018-11-14T02:57:16.430Z,8.17
2018-11-14T02:58:16.420Z,8.21
2018-11-14T02:59:16.430Z,8.17
2018-11-14T03:00:16.398Z,8.22
2018-11-14T03:01:16.386Z,8.22
2018-11-14T03:02:16.381Z,8.22
2018-11-14T03:03:16.363Z,8.22
2018-11-14T03:04:16.375Z,8.21
2018-11-14T03:05:16.340Z,8.17
2018-11-14T03:06:16.330Z,8.20
2018-11-14T03:07:16.317Z,8.24
2018-11-14T03:08:16.315Z,8.21
2018-11-14T03:09:16.318Z,8.18
2018-11-14T03:10:16.281Z,8.20
2018-11-14T03:11:16.271Z,8.24
2018-11-14T03:12:16.368Z,8.18
2018-11-14T03:13:16.250Z,8.21
2018-11-14T03:14:16.275Z,8.25
2018-11-14T03:15:16.227Z,8.20
2018-11-14T03:16:16.215Z,8.22
2018-11-14T03:17:16.205Z,8.25
2018-11-14T03:18:16.193Z,8.20
2018-11-14T03:19:16.184Z,8.21
2018-11-14T03:20:16.199Z,8.25
2018-11-14T03:21:16.174Z,8.25
2018-11-14T03:22:16.147Z,8.22
2018-11-14T03:23:16.135Z,8.18
2018-11-14T03:24:16.124Z,8.25
2018-11-14T03:25:16.137Z,8.18
2018-11-14T03:26:16.100Z,8.13
2018-11-14T03:27:16.099Z,8.20
2018-11-14T03:28:16.079Z,8.04
2018-11-14T03:29:16.067Z,8.00
2018-11-14T03:30:16.079Z,8.07
2018-11-14T03:31:16.044Z,8.07
2018-11-14T03:32:16.033Z,8.00
2018-11-14T03:33:16.029Z,8.10
2018-11-14T03:34:16.011Z,8.10
2018-11-14T03:35:16.025Z,8.09
2018-11-14T03:36:15.989Z,8.03
2018-11-14T03:37:15.975Z,8.00
2018-11-14T03:38:15.963Z,8.03
2018-11-14T03:39:15.969Z,8.04
2018-11-14T03:40:15.965Z,8.03
2018-11-14T03:41:15.930Z,8.04
2018-11-14T03:42:15.922Z,8.07
2018-11-14T03:43:15.906Z,7.99
2018-11-14T03:44:15.900Z,8.04
2018-11-14T03:45:15.915Z,8.04
2018-11-14T03:46:15.874Z,8.02
2018-11-14T03:47:15.862Z,8.04
2018-11-14T03:48:15.851Z,8.00
2018-11-14T03:49:15.838Z,8.06
2018-11-14T03:50:15.854Z,7.95
2018-11-14T03:51:15.821Z,7.94
2018-11-14T03:52:15.807Z,7.94
2018-11-14T03:53:15.799Z,7.89
2018-11-14T03:54:15.784Z,7.96
2018-11-14T03:55:15.797Z,7.86
2018-11-14T03:56:15.763Z,7.82
2018-11-14T03:57:15.751Z,7.84
2018-11-14T03:58:15.749Z,7.86
2018-11-14T03:59:15.733Z,7.85
2018-11-14T04:00:15.745Z,7.81
2018-11-14T04:01:15.704Z,7.86
2018-11-14T04:02:15.696Z,7.82
2018-11-14T04:03:15.693Z,7.74
2018-11-14T04:04:15.670Z,7.88
2018-11-14T04:05:15.684Z,7.84
2018-11-14T04:06:15.647Z,7.77
2018-11-14T04:07:15.636Z,7.77
2018-11-14T04:08:15.627Z,7.67
2018-11-14T04:09:15.738Z,7.82
2018-11-14T04:10:15.628Z,7.77
2018-11-14T04:11:15.589Z,7.74
2018-11-14T04:12:15.581Z,7.81
2018-11-14T04:13:15.567Z,7.77
2018-11-14T04:14:15.555Z,7.79
2018-11-14T04:15:15.603Z,7.74
2018-11-14T04:16:15.534Z,7.69
2018-11-14T04:17:15.522Z,7.69
2018-11-14T04:18:15.510Z,7.84
2018-11-14T04:19:15.499Z,7.79
2018-11-14T04:20:15.511Z,7.84
2018-11-14T04:21:15.485Z,7.77
2018-11-14T04:22:15.465Z,7.79
2018-11-14T04:23:15.457Z,7.81
2018-11-14T04:24:15.441Z,7.76
2018-11-14T04:25:15.457Z,7.70
2018-11-14T04:26:15.423Z,7.84
2018-11-14T04:27:15.425Z,7.84
2018-11-14T04:28:15.398Z,7.79
2018-11-14T04:29:15.386Z,7.79
2018-11-14T04:30:15.399Z,7.82
2018-11-14T04:31:15.364Z,7.79
2018-11-14T04:32:15.352Z,7.77
2018-11-14T04:33:15.349Z,7.81
2018-11-14T04:34:15.332Z,7.82
2018-11-14T04:35:15.343Z,7.76
2018-11-14T04:36:15.308Z,7.88
2018-11-14T04:37:15.296Z,7.79
2018-11-14T04:38:15.287Z,7.77
2018-11-14T04:39:15.288Z,7.76
2018-11-14T04:40:15.285Z,7.77
2018-11-14T04:41:15.251Z,7.70
2018-11-14T04:42:15.239Z,7.70
2018-11-14T04:43:15.228Z,7.67
2018-11-14T04:44:15.218Z,7.81
2018-11-14T04:45:15.232Z,7.82
2018-11-14T04:46:15.227Z,7.63
2018-11-14T04:47:15.188Z,7.66
2018-11-14T04:48:15.313Z,7.74
2018-11-14T04:49:15.162Z,7.66
2018-11-14T04:50:15.177Z,7.70
2018-11-14T04:51:15.136Z,7.62
2018-11-14T04:52:15.126Z,7.67
2018-11-14T04:53:15.117Z,7.62
2018-11-14T04:54:15.106Z,7.73
2018-11-14T04:55:15.161Z,7.74
2018-11-14T04:56:15.092Z,7.73
2018-11-14T04:57:15.070Z,7.66
2018-11-14T04:58:15.073Z,7.66
2018-11-14T04:59:15.047Z,7.70
2018-11-14T05:00:15.060Z,7.60
2018-11-14T05:01:15.028Z,7.73
2018-11-14T05:02:15.066Z,7.77
2018-11-14T05:03:15.007Z,7.69
2018-11-14T05:04:14.992Z,7.67
2018-11-14T05:05:15.003Z,7.71
2018-11-14T05:06:14.965Z,7.69
2018-11-14T05:07:14.954Z,7.69
2018-11-14T05:08:14.945Z,7.71
2018-11-14T05:09:14.936Z,7.67
2018-11-14T05:10:14.945Z,7.58
2018-11-14T05:11:14.910Z,7.62
2018-11-14T05:12:14.916Z,7.62
2018-11-14T05:13:14.891Z,7.54
2018-11-14T05:14:14.876Z,7.58
2018-11-14T05:15:14.891Z,7.52
2018-11-14T05:16:14.859Z,7.57
2018-11-14T05:17:14.843Z,7.57
2018-11-14T05:18:14.831Z,7.57
2018-11-14T05:19:14.823Z,7.57
2018-11-14T05:20:14.832Z,7.51
2018-11-14T05:21:14.798Z,7.52
2018-11-14T05:22:14.797Z,7.54
2018-11-14T05:23:14.775Z,7.55
2018-11-14T05:24:14.763Z,7.54
2018-11-14T05:25:14.756Z,7.50
2018-11-14T05:26:14.764Z,7.50
2018-11-14T05:27:14.730Z,7.55
2018-11-14T05:28:14.723Z,7.54
2018-11-14T05:29:14.706Z,7.51
2018-11-14T05:30:14.703Z,7.44
2018-11-14T05:31:14.708Z,7.47
2018-11-14T05:32:14.672Z,7.41
2018-11-14T05:33:14.661Z,7.45
2018-11-14T05:34:14.655Z,7.37
2018-11-14T05:35:14.643Z,7.36
2018-11-14T05:36:14.659Z,7.39
2018-11-14T05:37:14.624Z,7.42
2018-11-14T05:38:14.609Z,7.32
2018-11-14T05:39:14.594Z,7.30
2018-11-14T05:40:14.656Z,7.42
2018-11-14T05:41:14.597Z,7.37
2018-11-14T05:42:14.561Z,7.32
2018-11-14T05:43:14.556Z,7.33
2018-11-14T05:44:14.540Z,7.42
2018-11-14T05:45:14.621Z,7.36
2018-11-14T05:46:14.542Z,7.30
2018-11-14T05:47:14.507Z,7.33
2018-11-14T05:48:14.496Z,7.30
2018-11-14T05:49:14.494Z,7.18
2018-11-14T05:50:14.474Z,7.18
2018-11-14T05:51:14.487Z,7.21
2018-11-14T05:52:14.454Z,7.23
2018-11-14T05:53:14.445Z,7.26
2018-11-14T05:54:14.434Z,7.18
2018-11-14T05:55:14.421Z,7.21
2018-11-14T05:56:14.490Z,7.11
2018-11-14T05:57:14.408Z,7.15
2018-11-14T05:58:14.390Z,7.15
2018-11-14T05:59:14.379Z,7.14
2018-11-14T06:00:14.371Z,7.09
2018-11-14T06:01:14.375Z,7.12
2018-11-14T06:02:14.343Z,7.14
2018-11-14T06:03:14.375Z,7.18
2018-11-14T06:04:14.323Z,7.12
2018-11-14T06:05:14.331Z,7.08
2018-11-14T06:06:14.320Z,7.18
2018-11-14T06:07:14.385Z,7.19
2018-11-14T06:08:14.277Z,7.18
2018-11-14T06:09:14.264Z,7.16
2018-11-14T06:10:14.276Z,7.16
2018-11-14T06:11:14.277Z,7.14
2018-11-14T06:12:14.235Z,7.09
2018-11-14T06:13:14.221Z,7.15
2018-11-14T06:14:14.210Z,7.11
2018-11-14T06:15:14.289Z,7.07
2018-11-14T06:16:14.210Z,7.18
2018-11-14T06:17:14.175Z,7.11
2018-11-14T06:18:14.198Z,7.09
2018-11-14T06:19:14.153Z,7.15
2018-11-14T06:20:14.197Z,7.04
2018-11-14T06:21:14.153Z,7.11
2018-11-14T06:22:14.124Z,7.15
2018-11-14T06:23:14.113Z,7.05
2018-11-14T06:24:14.103Z,7.12
2018-11-14T06:25:14.087Z,7.18
2018-11-14T06:26:14.125Z,7.14
2018-11-14T06:27:14.066Z,7.04
2018-11-14T06:28:14.064Z,7.04
2018-11-14T06:29:14.040Z,7.18
2018-11-14T06:30:14.033Z,7.08
2018-11-14T06:31:14.050Z,7.14
2018-11-14T06:32:14.012Z,7.11
2018-11-14T06:33:13.995Z,7.16
2018-11-14T06:34:14.021Z,7.08
2018-11-14T06:35:13.975Z,7.14
2018-11-14T06:36:13.986Z,7.19
2018-11-14T06:37:13.976Z,7.16
2018-11-14T06:38:13.943Z,7.18
2018-11-14T06:39:13.975Z,7.19
2018-11-14T06:40:13.925Z,7.32
2018-11-14T06:41:13.937Z,7.29
2018-11-14T06:42:13.898Z,7.37
2018-11-14T06:43:13.905Z,7.36
2018-11-14T06:44:13.874Z,7.41
2018-11-14T06:45:13.862Z,7.37
2018-11-14T06:46:13.915Z,7.47
2018-11-14T06:47:13.853Z,7.45
2018-11-14T06:48:13.832Z,7.54
2018-11-14T06:49:13.823Z,7.42
2018-11-14T06:50:13.813Z,7.47
2018-11-14T06:51:13.820Z,7.44
2018-11-14T06:52:13.783Z,7.39
2018-11-14T06:53:13.792Z,7.47
2018-11-14T06:54:13.762Z,7.39
2018-11-14T06:55:13.750Z,7.50
2018-11-14T06:56:13.771Z,7.42
2018-11-14T06:57:13.735Z,7.48
2018-11-14T06:58:13.757Z,7.36
2018-11-14T06:59:13.763Z,7.45
2018-11-14T07:00:13.701Z,7.41
2018-11-14T07:01:13.682Z,7.45
2018-11-14T07:02:13.695Z,7.44
2018-11-14T07:03:13.711Z,7.42
2018-11-14T07:04:13.686Z,7.47
2018-11-14T07:05:13.760Z,7.44
2018-11-14T07:06:13.736Z,7.45
2018-11-14T07:07:13.618Z,7.55
2018-11-14T07:08:13.602Z,7.55
2018-11-14T07:09:13.597Z,7.50
2018-11-14T07:10:13.582Z,7.58
2018-11-14T07:11:13.646Z,7.50
2018-11-14T07:12:13.580Z,7.52
2018-11-14T07:13:13.547Z,7.57
2018-11-14T07:14:13.534Z,7.54
2018-11-14T07:15:13.550Z,7.57
2018-11-14T07:16:13.511Z,7.52
2018-11-14T07:17:13.530Z,7.55
2018-11-14T07:18:13.489Z,7.57
2018-11-14T07:19:13.480Z,7.57
2018-11-14T07:20:13.479Z,7.55
2018-11-14T07:21:13.462Z,7.57
2018-11-14T07:22:13.469Z,7.54
2018-11-14T07:23:13.473Z,7.50
2018-11-14T07:24:13.436Z,7.54
2018-11-14T07:25:13.409Z,7.55
2018-11-14T07:26:13.401Z,7.52
2018-11-14T07:27:13.416Z,7.66
2018-11-14T07:28:13.381Z,7.62
2018-11-14T07:29:13.365Z,7.66
2018-11-14T07:30:13.353Z,7.70
2018-11-14T07:31:13.348Z,7.67
2018-11-14T07:32:13.427Z,7.69
2018-11-14T07:33:13.322Z,7.74
2018-11-14T07:34:13.313Z,7.66
2018-11-14T07:35:13.297Z,7.70
2018-11-14T07:36:13.287Z,7.81
2018-11-14T07:37:13.297Z,7.82
2018-11-14T07:38:13.268Z,7.77
2018-11-14T07:39:13.248Z,7.84
2018-11-14T07:40:13.246Z,7.73
2018-11-14T07:41:13.256Z,7.69
2018-11-14T07:42:13.240Z,7.79
2018-11-14T07:43:13.204Z,7.86
2018-11-14T07:44:13.192Z,7.76
2018-11-14T07:45:13.225Z,7.67
2018-11-14T07:46:13.176Z,7.82
2018-11-14T07:47:13.182Z,7.84
2018-11-14T07:48:13.153Z,7.81
2018-11-14T07:49:13.142Z,7.85
2018-11-14T07:50:13.200Z,7.82
2018-11-14T07:51:13.112Z,7.88
2018-11-14T07:52:13.126Z,7.77
2018-11-14T07:53:13.086Z,7.84
2018-11-14T07:54:13.090Z,7.81
2018-11-14T07:55:13.069Z,7.81
2018-11-14T07:56:13.056Z,7.86
2018-11-14T07:57:13.070Z,7.95
2018-11-14T07:58:13.041Z,7.92
2018-11-14T07:59:13.019Z,7.95
2018-11-14T08:00:13.010Z,7.84
2018-11-14T08:01:12.994Z,7.81
2018-11-14T08:02:13.162Z,7.84
2018-11-14T08:03:12.982Z,7.94
2018-11-14T08:04:12.961Z,7.95
2018-11-14T08:05:12.954Z,8.07
2018-11-14T08:06:12.939Z,8.03
2018-11-14T08:07:12.952Z,8.07
2018-11-14T08:08:12.935Z,8.13
2018-11-14T08:09:12.956Z,8.09
2018-11-14T08:10:12.909Z,8.17
2018-11-14T08:11:12.892Z,8.18
2018-11-14T08:12:12.896Z,8.24
2018-11-14T08:13:12.869Z,8.25
2018-11-14T08:14:12.847Z,8.22
2018-11-14T08:15:12.837Z,8.32
2018-11-14T08:16:12.833Z,8.25
2018-11-14T08:17:12.840Z,8.34
2018-11-14T08:18:12.819Z,8.46
2018-11-14T08:19:12.794Z,8.43
2018-11-14T08:20:12.791Z,8.43
2018-11-14T08:21:12.772Z,8.45
2018-11-14T08:22:12.787Z,8.40
2018-11-14T08:23:12.748Z,8.40
2018-11-14T08:24:12.747Z,8.46
2018-11-14T08:25:12.798Z,8.49
2018-11-14T08:26:12.717Z,8.50
2018-11-14T08:27:12.728Z,8.55
2018-11-14T08:28:12.693Z,8.60
2018-11-14T08:29:12.695Z,8.55
2018-11-14T08:30:12.671Z,8.60
2018-11-14T08:31:12.661Z,8.63
2018-11-14T08:32:12.673Z,8.55
2018-11-14T08:33:12.646Z,8.61
2018-11-14T08:34:12.632Z,8.58
2018-11-14T08:35:12.618Z,8.70
2018-11-14T08:36:12.603Z,8.70
2018-11-14T08:37:12.687Z,8.78
2018-11-14T08:38:12.590Z,8.68
2018-11-14T08:39:12.640Z,8.82
2018-11-14T08:40:12.563Z,8.78
2018-11-14T08:41:12.549Z,8.85
2018-11-14T08:42:12.564Z,8.88
2018-11-14T08:43:12.533Z,8.85
2018-11-14T08:44:12.522Z,8.80
2018-11-14T08:45:12.506Z,8.78
2018-11-14T08:46:12.503Z,8.80
2018-11-14T08:47:12.507Z,8.75
2018-11-14T08:48:12.471Z,8.85
2018-11-14T08:49:12.471Z,8.82
2018-11-14T08:50:12.546Z,8.94
2018-11-14T08:51:12.438Z,8.82
2018-11-14T08:52:12.452Z,8.91
2018-11-14T08:53:12.417Z,8.96
2018-11-14T08:54:12.414Z,8.94
2018-11-14T08:55:12.396Z,8.96
2018-11-14T08:56:12.398Z,8.98
2018-11-14T08:57:12.399Z,8.93
2018-11-14T08:58:12.364Z,8.89
2018-11-14T08:59:12.350Z,9.00
2018-11-14T09:00:12.338Z,8.97
2018-11-14T09:01:12.327Z,8.96
2018-11-14T09:02:12.319Z,8.93
2018-11-14T09:03:12.326Z,8.96
2018-11-14T09:04:12.350Z,9.12
2018-11-14T09:05:12.287Z,9.12
2018-11-14T09:06:12.314Z,9.17
2018-11-14T09:07:12.265Z,9.22
2018-11-14T09:08:12.287Z,9.20
2018-11-14T09:09:12.241Z,9.26
2018-11-14T09:10:12.227Z,9.34
2018-11-14T09:11:12.405Z,9.42
2018-11-14T09:12:12.261Z,9.41
2018-11-14T09:13:12.312Z,9.38
2018-11-14T09:14:12.184Z,9.53
2018-11-14T09:15:12.325Z,9.55
2018-11-14T09:16:12.191Z,9.50
2018-11-14T09:17:12.158Z,9.50
2018-11-14T09:18:12.223Z,9.53
2018-11-14T09:19:12.129Z,9.50
2018-11-14T09:20:12.116Z,9.49
2018-11-14T09:21:12.106Z,9.56
2018-11-14T09:22:12.099Z,9.60
2018-11-14T09:23:12.107Z,9.60
2018-11-14T09:24:12.083Z,9.58
2018-11-14T09:25:12.066Z,9.58
2018-11-14T09:26:12.048Z,9.68
2018-11-14T09:27:12.087Z,9.62
2018-11-14T09:28:12.121Z,9.62
2018-11-14T09:29:12.014Z,9.67
2018-11-14T09:30:12.006Z,9.68
2018-11-14T09:31:12.016Z,9.71
2018-11-14T09:32:11.991Z,9.80
2018-11-14T09:33:12.073Z,9.78
2018-11-14T09:34:11.968Z,9.78
2018-11-14T09:35:11.947Z,9.77
2018-11-14T09:36:11.937Z,9.80
2018-11-14T09:37:11.927Z,9.75
2018-11-14T09:38:11.940Z,9.83
2018-11-14T09:39:11.934Z,9.91
2018-11-14T09:40:11.895Z,9.85
2018-11-14T09:41:11.896Z,9.75
2018-11-14T09:42:11.873Z,9.80
2018-11-14T09:43:11.891Z,9.78
2018-11-14T09:44:11.849Z,9.71
2018-11-14T09:45:11.837Z,9.62
2018-11-14T09:46:11.826Z,9.71
2018-11-14T09:47:11.815Z,9.83
2018-11-14T09:48:11.833Z,9.73
2018-11-14T09:49:11.833Z,9.80
2018-11-14T09:50:11.778Z,9.78
2018-11-14T09:51:11.768Z,9.85
2018-11-14T09:52:11.761Z,9.86
2018-11-14T09:53:11.809Z,9.95
2018-11-14T09:54:11.736Z,9.98
2018-11-14T09:55:11.724Z,9.89
2018-11-14T09:56:11.711Z,9.99
2018-11-14T09:57:11.705Z,10.02
2018-11-14T09:58:11.716Z,9.95
2018-11-14T09:59:11.678Z,10.09
2018-11-14T10:00:11.672Z,10.09
2018-11-14T10:01:11.659Z,10.09
2018-11-14T10:02:11.649Z,9.99
2018-11-14T10:03:11.659Z,9.96
2018-11-14T10:04:11.625Z,9.98
2018-11-14T10:05:11.611Z,9.77
2018-11-14T10:06:11.668Z,9.77
2018-11-14T10:07:11.588Z,9.75
2018-11-14T10:08:11.614Z,9.74
2018-11-14T10:09:11.569Z,9.78
2018-11-14T10:10:11.556Z,9.74
2018-11-14T10:11:11.548Z,9.80
2018-11-14T10:12:11.535Z,9.67
2018-11-14T10:13:11.547Z,9.73
2018-11-14T10:14:11.520Z,9.65
2018-11-14T10:15:11.500Z,9.67
2018-11-14T10:16:11.489Z,9.70
2018-11-14T10:17:11.480Z,9.65
2018-11-14T10:18:11.492Z,9.67
2018-11-14T10:19:11.456Z,9.65
2018-11-14T10:20:11.444Z,9.70
2018-11-14T10:21:11.459Z,9.60
2018-11-14T10:22:11.423Z,9.67
2018-11-14T10:23:11.436Z,9.68
2018-11-14T10:24:11.405Z,9.59
2018-11-14T10:25:11.389Z,9.59
2018-11-14T10:26:11.377Z,9.65
2018-11-14T10:27:11.369Z,9.58
2018-11-14T10:28:11.381Z,9.56
2018-11-14T10:29:11.353Z,9.59
2018-11-14T10:30:11.344Z,9.62
2018-11-14T10:31:11.323Z,9.53
2018-11-14T10:32:11.309Z,9.53
2018-11-14T10:33:11.329Z,9.59
2018-11-14T10:34:11.288Z,9.53
2018-11-14T10:35:11.278Z,9.58
2018-11-14T10:36:11.273Z,9.52
2018-11-14T10:37:11.254Z,9.60
2018-11-14T10:38:11.268Z,9.59
2018-11-14T10:39:11.233Z,9.63
2018-11-14T10:40:11.222Z,9.70
2018-11-14T10:41:11.210Z,9.65
2018-11-14T10:42:11.199Z,9.67
2018-11-14T10:43:11.364Z,9.71
2018-11-14T10:44:11.176Z,9.63
2018-11-14T10:45:11.183Z,9.63
2018-11-14T10:46:11.154Z,9.68
2018-11-14T10:47:11.144Z,9.68
2018-11-14T10:48:11.162Z,9.75
2018-11-14T10:49:11.120Z,9.77
2018-11-14T10:50:11.108Z,9.83
2018-11-14T10:51:11.221Z,9.81
2018-11-14T10:52:11.088Z,9.83
2018-11-14T10:53:11.104Z,9.86
2018-11-14T10:54:11.195Z,9.89
2018-11-14T10:55:11.113Z,9.91
2018-11-14T10:56:11.068Z,9.92
2018-11-14T10:57:11.046Z,10.02
2018-11-14T10:58:11.031Z,10.02
2018-11-14T10:59:11.032Z,10.02
2018-11-14T11:00:10.999Z,10.02
2018-11-14T11:01:10.987Z,10.04
2018-11-14T11:02:10.976Z,10.06
2018-11-14T11:03:10.996Z,10.01
2018-11-14T11:04:10.956Z,10.02
2018-11-14T11:05:10.940Z,10.04
2018-11-14T11:06:10.933Z,10.13
2018-11-14T11:07:10.919Z,10.11
2018-11-14T11:08:11.054Z,10.10
2018-11-14T11:09:10.923Z,10.13
2018-11-14T11:10:10.895Z,10.17
2018-11-14T11:11:10.880Z,10.16
2018-11-14T11:12:10.868Z,10.24
2018-11-14T11:13:10.852Z,10.32
2018-11-14T11:14:10.888Z,10.42
2018-11-14T11:15:10.831Z,10.42
2018-11-14T11:16:10.820Z,10.36
2018-11-14T11:17:10.830Z,10.43
2018-11-14T11:18:10.795Z,10.47
2018-11-14T11:19:10.807Z,10.51
2018-11-14T11:20:10.772Z,10.46
2018-11-14T11:21:10.765Z,10.55
2018-11-14T11:22:10.756Z,10.51
2018-11-14T11:23:10.813Z,10.62
2018-11-14T11:24:10.754Z,10.55
2018-11-14T11:25:10.721Z,10.62
2018-11-14T11:26:10.708Z,10.58
2018-11-14T11:27:10.695Z,10.57
2018-11-14T11:28:10.684Z,10.57
2018-11-14T11:29:10.700Z,10.63
2018-11-14T11:30:10.664Z,10.60
2018-11-14T11:31:10.657Z,10.62
2018-11-14T11:32:10.834Z,10.68
2018-11-14T11:33:10.643Z,10.66
2018-11-14T11:34:10.648Z,10.72
2018-11-14T11:35:10.627Z,10.75
2018-11-14T11:36:10.598Z,10.73
2018-11-14T11:37:10.589Z,10.80
2018-11-14T11:38:10.582Z,10.81
2018-11-14T11:39:10.657Z,10.80
2018-11-14T11:40:10.553Z,10.76
2018-11-14T11:41:10.539Z,10.83
2018-11-14T11:42:10.534Z,10.95
2018-11-14T11:43:10.518Z,10.91
2018-11-14T11:44:10.562Z,10.98
2018-11-14T11:45:10.499Z,10.88
2018-11-14T11:46:10.485Z,10.99
2018-11-14T11:47:10.475Z,10.99
2018-11-14T11:48:10.462Z,11.05
2018-11-14T11:49:10.487Z,11.08
2018-11-14T11:50:10.440Z,11.09
2018-11-14T11:51:10.500Z,11.11
2018-11-14T11:52:10.420Z,11.09
2018-11-14T11:53:10.406Z,11.23
2018-11-14T11:54:10.421Z,11.23
2018-11-14T11:55:10.384Z,11.27
2018-11-14T11:56:10.373Z,11.20
2018-11-14T11:57:10.362Z,11.21
2018-11-14T11:58:10.390Z,11.27
2018-11-14T11:59:10.368Z,11.28
2018-11-14T12:00:10.495Z,11.39
2018-11-14T12:01:10.323Z,11.35
2018-11-14T12:02:10.373Z,11.36
2018-11-14T12:03:10.294Z,11.44
2018-11-14T12:04:10.308Z,11.48
2018-11-14T12:05:10.274Z,11.41
2018-11-14T12:06:10.393Z,11.49
2018-11-14T12:07:10.251Z,11.54
2018-11-14T12:08:10.244Z,11.62
2018-11-14T12:09:10.257Z,11.60
2018-11-14T12:10:10.219Z,11.60
2018-11-14T12:11:10.205Z,11.57
2018-11-14T12:12:10.195Z,11.63
2018-11-14T12:13:10.205Z,11.72
2018-11-14T12:14:10.183Z,11.66
2018-11-14T12:15:10.185Z,11.69
2018-11-14T12:16:10.150Z,11.74
2018-11-14T12:17:10.145Z,11.79
2018-11-14T12:18:10.135Z,11.82
2018-11-14T12:19:10.190Z,11.75
2018-11-14T12:20:10.131Z,11.84
2018-11-14T12:21:10.095Z,11.93
2018-11-14T12:22:10.087Z,11.82
2018-11-14T12:23:10.078Z,12.01
2018-11-14T12:24:10.089Z,12.00
2018-11-14T12:25:10.072Z,11.98
2018-11-14T12:26:10.047Z,12.05
2018-11-14T12:27:10.079Z,12.04
2018-11-14T12:28:10.015Z,12.04
2018-11-14T12:29:10.010Z,12.11
2018-11-14T12:30:10.162Z,12.08
2018-11-14T12:31:10.121Z,12.11
2018-11-14T12:32:09.971Z,12.16
2018-11-14T12:33:09.958Z,12.22
2018-11-14T12:34:09.950Z,12.16
2018-11-14T12:35:09.970Z,12.19
2018-11-14T12:36:09.928Z,12.15
2018-11-14T12:37:09.928Z,12.19
2018-11-14T12:38:09.905Z,12.16
2018-11-14T12:39:09.896Z,12.16
2018-11-14T12:40:09.903Z,12.23
2018-11-14T12:41:09.868Z,12.23
2018-11-14T12:42:09.862Z,12.26
2018-11-14T12:43:09.863Z,12.31
2018-11-14T12:44:09.842Z,12.29
2018-11-14T12:45:09.925Z,12.38
2018-11-14T12:46:09.817Z,12.34
2018-11-14T12:47:09.801Z,12.36
2018-11-14T12:48:09.795Z,12.37
2018-11-14T12:49:09.796Z,12.40
2018-11-14T12:50:09.797Z,12.43
2018-11-14T12:51:09.757Z,12.44
2018-11-14T12:52:09.747Z,12.43
2018-11-14T12:53:09.741Z,12.49
2018-11-14T12:54:09.725Z,12.54
2018-11-14T12:55:09.745Z,12.51
2018-11-14T12:56:09.704Z,12.56
2018-11-14T12:57:09.690Z,12.55
2018-11-14T12:58:09.681Z,12.52
2018-11-14T12:59:09.669Z,12.61
2018-11-14T13:00:09.760Z,12.58
2018-11-14T13:01:09.648Z,12.67
2018-11-14T13:02:09.642Z,12.70
2018-11-14T13:03:09.625Z,12.69
2018-11-14T13:04:09.612Z,12.79
2018-11-14T13:05:09.625Z,12.70
2018-11-14T13:06:09.591Z,12.81
2018-11-14T13:07:09.578Z,12.95
2018-11-14T13:08:09.580Z,13.03
2018-11-14T13:09:09.555Z,13.44
2018-11-14T13:10:09.569Z,13.98
2018-11-14T13:11:09.534Z,14.52
2018-11-14T13:12:09.525Z,14.93
2018-11-14T13:13:09.513Z,15.33